Time;durP1;ratioP1;P1;durP2;ratioP2;P2;SDS_P1;SDS_P2;PMS_P1;PMS_P2;Temp;Humidity;BMP_temperature;BMP_pressure;BME280_temperature;BME280_humidity;BME280_pressure;Samples;Min_cycle;Max_cycle;Signal;HPM_P1;HPM_P2
2023/07/27 00:02:00;;;;;;;2.20;1.87;;;15.30;99.90;;;;;;5019965;28;20238;-59
2023/07/27 00:04:26;;;;;;;1.60;1.50;;;15.30;99.90;;;;;;5020150;28;20273;-65
2023/07/27 00:06:51;;;;;;;2.20;2.00;;;15.00;99.90;;;;;;5016674;28;20214;-72
2023/07/27 00:09:17;;;;;;;1.90;1.80;;;15.00;99.90;;;;;;5015693;28;20208;-64
2023/07/27 00:11:43;;;;;;;2.57;2.37;;;14.90;99.90;;;;;;5020911;28;20192;-64
2023/07/27 00:14:08;;;;;;;3.13;2.10;;;14.70;99.90;;;;;;5020641;28;20196;-64
2023/07/27 00:16:34;;;;;;;2.10;1.80;;;14.80;99.90;;;;;;5012332;28;20203;-64
2023/07/27 00:18:59;;;;;;;2.53;2.33;;;14.80;99.90;;;;;;5012396;28;20776;-60
2023/07/27 00:21:25;;;;;;;2.93;1.80;;;14.80;99.90;;;;;;5019505;28;20202;-60
2023/07/27 00:23:50;;;;;;;2.20;2.07;;;14.90;99.90;;;;;;5009964;28;20265;-61
2023/07/27 00:26:17;;;;;;;2.07;1.83;;;14.60;99.90;;;;;;5015481;28;20207;-60
2023/07/27 00:28:42;;;;;;;1.60;1.50;;;14.70;99.90;;;;;;5041146;28;20204;-61
2023/07/27 00:31:08;;;;;;;2.67;2.27;;;14.50;99.90;;;;;;5014779;28;20676;-69
2023/07/27 00:33:34;;;;;;;2.33;2.20;;;14.60;99.90;;;;;;5022814;28;20197;-68
2023/07/27 00:36:00;;;;;;;2.03;1.93;;;14.50;99.90;;;;;;5015088;28;20215;-58
2023/07/27 00:38:27;;;;;;;2.83;2.27;;;14.30;99.90;;;;;;5024105;28;20212;-57
2023/07/27 00:40:52;;;;;;;2.77;2.43;;;14.40;99.90;;;;;;5012042;28;20200;-59
2023/07/27 00:43:18;;;;;;;2.20;2.10;;;14.50;99.90;;;;;;5016728;28;20215;-58
2023/07/27 00:45:43;;;;;;;1.90;1.80;;;14.70;99.90;;;;;;5003860;28;20711;-59
2023/07/27 00:48:09;;;;;;;2.50;2.07;;;14.80;99.90;;;;;;5015280;28;20279;-59
2023/07/27 00:50:35;;;;;;;2.33;2.03;;;14.70;99.90;;;;;;5007723;28;20227;-59
2023/07/27 00:53:03;;;;;;;2.33;2.13;;;14.70;99.90;;;;;;5017203;28;20191;-64
2023/07/27 00:55:29;;;;;;;2.37;2.17;;;14.80;99.90;;;;;;5009083;28;20200;-67
2023/07/27 00:57:56;;;;;;;2.23;2.07;;;14.80;99.90;;;;;;5014299;28;20467;-74
2023/07/27 01:00:21;;;;;;;1.93;1.83;;;14.60;99.90;;;;;;5018912;28;20235;-73
2023/07/27 01:02:47;;;;;;;5.33;2.33;;;14.70;99.90;;;;;;5016583;28;20250;-64
2023/07/27 01:05:13;;;;;;;2.20;2.00;;;14.70;99.90;;;;;;5013209;28;20208;-64
2023/07/27 01:07:38;;;;;;;4.30;2.50;;;14.70;99.90;;;;;;5019252;28;20183;-59
2023/07/27 01:10:04;;;;;;;2.47;2.27;;;14.60;99.90;;;;;;5019369;28;20192;-60
2023/07/27 01:12:49;;;;;;;2.83;2.43;;;14.70;99.90;;;;;;5017859;28;20191;-60
2023/07/27 01:15:17;;;;;;;2.10;2.00;;;14.80;99.90;;;;;;5021265;28;20211;-60
2023/07/27 01:18:00;;;;;;;2.30;2.13;;;14.80;99.90;;;;;;5025766;28;20215;-60
2023/07/27 01:20:31;;;;;;;2.17;2.00;;;14.80;99.90;;;;;;5016361;28;20670;-60
2023/07/27 01:23:41;;;;;;;4.00;2.40;;;14.80;99.90;;;;;;5021561;28;20175;-60
2023/07/27 01:26:43;;;;;;;3.50;2.40;;;14.80;99.90;;;;;;5014039;28;20215;-60
2023/07/27 01:29:30;;;;;;;3.03;2.13;;;14.80;99.90;;;;;;5019481;28;20176;-60
2023/07/27 01:31:56;;;;;;;2.37;2.10;;;14.80;99.90;;;;;;5013818;28;20252;-60
2023/07/27 01:34:31;;;;;;;2.67;2.37;;;14.70;99.90;;;;;;5015689;28;20982;-59
2023/07/27 01:37:01;;;;;;;2.50;2.30;;;14.50;99.90;;;;;;5020477;28;20202;-58
2023/07/27 01:39:30;;;;;;;2.33;2.13;;;14.50;99.90;;;;;;5020630;28;20199;-59
2023/07/27 01:41:56;;;;;;;3.90;2.47;;;14.50;99.90;;;;;;5021349;28;20726;-59
2023/07/27 01:44:24;;;;;;;2.43;2.23;;;14.60;99.90;;;;;;5018495;28;20597;-59
2023/07/27 01:46:51;;;;;;;2.63;2.37;;;14.60;99.90;;;;;;5015890;28;20204;-58
2023/07/27 01:49:18;;;;;;;3.27;2.57;;;14.70;99.90;;;;;;5016943;28;20200;-58
2023/07/27 01:51:46;;;;;;;2.53;2.33;;;14.70;99.90;;;;;;5019664;28;20253;-59
2023/07/27 01:54:12;;;;;;;2.37;2.17;;;14.70;99.90;;;;;;5019433;28;20199;-59
2023/07/27 01:56:39;;;;;;;2.57;2.40;;;14.70;99.90;;;;;;5019715;28;20222;-58
2023/07/27 01:59:07;;;;;;;2.53;2.37;;;14.70;99.90;;;;;;5015892;28;20199;-59
2023/07/27 02:01:34;;;;;;;3.10;2.63;;;14.70;99.90;;;;;;5017807;28;20195;-60
2023/07/27 02:04:00;;;;;;;2.47;2.27;;;14.70;99.90;;;;;;5013782;28;20688;-61
2023/07/27 02:06:25;;;;;;;3.10;2.80;;;14.70;99.90;;;;;;5009016;28;20239;-59
2023/07/27 02:08:51;;;;;;;3.30;3.00;;;14.70;99.90;;;;;;5019279;28;20211;-60
2023/07/27 02:11:19;;;;;;;2.13;2.03;;;14.80;99.90;;;;;;5015936;28;20291;-58
2023/07/27 02:14:16;;;;;;;3.07;2.87;;;14.80;99.90;;;;;;5012291;28;20224;-58
2023/07/27 02:16:54;;;;;;;4.40;2.47;;;14.70;99.90;;;;;;5015871;28;20226;-58
2023/07/27 02:19:26;;;;;;;3.73;3.13;;;14.60;99.90;;;;;;5017505;28;20285;-59
2023/07/27 02:21:54;;;;;;;3.20;2.80;;;14.60;99.90;;;;;;5014461;28;20207;-59
2023/07/27 02:24:20;;;;;;;2.87;2.57;;;14.60;99.90;;;;;;5022465;28;20202;-59
2023/07/27 02:26:46;;;;;;;5.83;2.67;;;14.50;99.90;;;;;;5018092;28;20195;-59
2023/07/27 02:29:11;;;;;;;3.60;3.23;;;14.40;99.90;;;;;;5020700;28;20559;-59
2023/07/27 02:31:37;;;;;;;3.43;3.10;;;14.30;99.90;;;;;;5022781;28;20202;-59
2023/07/27 02:34:02;;;;;;;2.57;2.37;;;14.20;99.90;;;;;;5016006;28;20692;-59
2023/07/27 02:36:28;;;;;;;3.37;2.80;;;14.20;99.90;;;;;;5022028;28;20278;-59
2023/07/27 02:38:53;;;;;;;3.63;3.33;;;14.00;99.90;;;;;;5016254;28;20270;-60
2023/07/27 02:41:19;;;;;;;3.30;3.00;;;14.10;99.90;;;;;;5018980;28;20199;-60
2023/07/27 02:43:44;;;;;;;3.20;3.00;;;14.10;99.90;;;;;;5019217;28;20208;-59
2023/07/27 02:46:09;;;;;;;3.00;2.80;;;14.30;99.90;;;;;;5023123;28;20632;-59
2023/07/27 02:48:35;;;;;;;3.87;2.93;;;14.40;99.90;;;;;;5024521;28;21008;-61
2023/07/27 02:51:01;;;;;;;3.17;2.90;;;14.30;99.90;;;;;;5016434;28;20203;-61
2023/07/27 02:53:27;;;;;;;2.87;2.63;;;14.30;99.90;;;;;;5018830;28;20195;-60
2023/07/27 02:55:59;;;;;;;3.03;2.70;;;14.30;99.90;;;;;;5023580;28;20238;-61
2023/07/27 02:58:25;;;;;;;3.00;2.70;;;14.40;99.90;;;;;;5024357;28;20722;-61
2023/07/27 03:00:55;;;;;;;4.30;2.70;;;14.40;99.90;;;;;;5020709;28;20195;-60
2023/07/27 03:03:21;;;;;;;3.10;2.77;;;14.40;99.90;;;;;;5012483;28;20231;-60
2023/07/27 03:05:47;;;;;;;2.90;2.60;;;14.50;99.90;;;;;;5021405;28;20584;-60
2023/07/27 03:08:12;;;;;;;3.10;2.83;;;14.40;99.90;;;;;;5019861;28;20195;-59
2023/07/27 03:10:39;;;;;;;3.23;2.70;;;14.40;99.90;;;;;;5025612;28;20706;-60
2023/07/27 03:13:04;;;;;;;2.60;2.40;;;14.40;99.90;;;;;;5013647;28;20329;-60
2023/07/27 03:15:30;;;;;;;3.13;2.93;;;14.40;99.90;;;;;;5018549;28;20619;-60
2023/07/27 03:17:55;;;;;;;3.77;2.67;;;14.40;99.90;;;;;;5019828;28;20211;-61
2023/07/27 03:20:21;;;;;;;2.70;2.50;;;14.40;99.90;;;;;;5022559;28;20192;-60
2023/07/27 03:22:46;;;;;;;3.87;3.13;;;14.40;99.90;;;;;;5018241;28;20204;-61
2023/07/27 03:25:12;;;;;;;4.07;3.23;;;14.40;99.90;;;;;;5016181;28;20222;-60
2023/07/27 03:27:37;;;;;;;3.23;2.70;;;14.40;99.90;;;;;;5015398;28;20238;-60
2023/07/27 03:30:03;;;;;;;3.57;3.03;;;14.50;99.90;;;;;;5022598;28;20195;-59
2023/07/27 03:32:29;;;;;;;3.90;3.27;;;14.50;99.90;;;;;;5018391;28;20211;-59
2023/07/27 03:34:54;;;;;;;4.67;3.37;;;14.40;99.90;;;;;;5021057;28;20274;-59
2023/07/27 03:37:20;;;;;;;4.10;3.57;;;14.40;99.90;;;;;;5010800;28;20220;-60
2023/07/27 03:39:45;;;;;;;4.80;3.53;;;14.40;99.90;;;;;;5019094;28;20195;-61
2023/07/27 03:42:11;;;;;;;3.53;3.23;;;14.40;99.90;;;;;;5009945;28;20273;-59
2023/07/27 03:44:38;;;;;;;4.27;3.73;;;14.40;99.90;;;;;;5021643;28;20195;-60
2023/07/27 03:47:03;;;;;;;4.20;3.80;;;14.30;99.90;;;;;;5025315;28;20203;-60
2023/07/27 03:49:29;;;;;;;4.30;3.20;;;14.20;99.90;;;;;;5019458;28;20568;-59
2023/07/27 03:51:54;;;;;;;4.30;3.90;;;13.90;99.90;;;;;;5018327;28;20543;-59
2023/07/27 03:54:20;;;;;;;4.40;4.00;;;13.90;99.90;;;;;;5010606;28;21120;-60
2023/07/27 03:56:46;;;;;;;3.37;3.10;;;13.80;99.90;;;;;;5014440;28;20200;-58
2023/07/27 03:59:11;;;;;;;4.40;3.87;;;13.90;99.90;;;;;;5021054;28;20180;-61
2023/07/27 04:01:36;;;;;;;4.20;3.90;;;14.00;99.90;;;;;;5012411;28;20606;-60
2023/07/27 04:04:02;;;;;;;6.37;4.23;;;14.10;99.90;;;;;;5019102;28;20230;-60
2023/07/27 04:06:27;;;;;;;4.50;3.87;;;14.10;99.90;;;;;;5020988;28;20230;-60
2023/07/27 04:08:53;;;;;;;4.40;4.00;;;14.10;99.90;;;;;;5016823;28;20226;-59
2023/07/27 04:11:18;;;;;;;4.50;4.10;;;14.10;99.90;;;;;;5017120;28;20238;-59
2023/07/27 04:13:44;;;;;;;5.93;3.83;;;14.10;99.90;;;;;;5013942;28;20207;-60
2023/07/27 04:16:09;;;;;;;4.93;4.30;;;14.20;99.90;;;;;;5020291;28;20215;-59
2023/07/27 04:18:35;;;;;;;4.20;3.90;;;14.10;99.90;;;;;;5014140;28;20224;-59
2023/07/27 04:21:00;;;;;;;4.30;3.87;;;14.20;99.90;;;;;;5024393;28;20203;-60
2023/07/27 04:23:26;;;;;;;5.13;4.63;;;14.20;99.90;;;;;;5016344;28;20214;-60
2023/07/27 04:25:51;;;;;;;4.43;4.10;;;14.10;99.90;;;;;;5022087;28;20191;-65
2023/07/27 04:28:17;;;;;;;3.93;3.63;;;14.10;99.90;;;;;;5012526;28;20243;-64
2023/07/27 04:30:44;;;;;;;4.63;4.23;;;14.10;99.90;;;;;;5032821;28;20887;-64
2023/07/27 04:33:09;;;;;;;4.90;4.47;;;14.10;99.90;;;;;;5010844;28;21070;-60
2023/07/27 04:35:35;;;;;;;4.37;4.07;;;14.10;99.90;;;;;;5014946;28;20215;-61
2023/07/27 04:38:00;;;;;;;6.03;4.97;;;14.10;99.90;;;;;;5014266;28;20899;-61
2023/07/27 04:40:26;;;;;;;5.00;4.40;;;14.20;99.90;;;;;;5014265;28;20206;-61
2023/07/27 04:42:51;;;;;;;4.10;3.80;;;14.20;99.90;;;;;;5014608;28;20206;-60
2023/07/27 04:45:17;;;;;;;4.60;3.83;;;14.20;99.90;;;;;;5010829;28;20270;-62
2023/07/27 04:47:42;;;;;;;5.13;4.70;;;14.10;99.90;;;;;;5017093;28;20285;-59
2023/07/27 04:50:08;;;;;;;4.90;4.40;;;14.20;99.90;;;;;;5021212;28;20179;-59
2023/07/27 04:52:33;;;;;;;4.97;4.47;;;14.10;99.90;;;;;;5017481;28;20604;-59
2023/07/27 04:54:59;;;;;;;6.20;4.20;;;14.10;99.90;;;;;;5009668;28;20217;-59
2023/07/27 04:57:24;;;;;;;5.00;4.50;;;14.20;99.90;;;;;;5011199;28;20358;-60
2023/07/27 04:59:50;;;;;;;5.10;4.00;;;14.20;99.90;;;;;;5033444;28;20195;-59
2023/07/27 05:02:15;;;;;;;4.13;3.80;;;14.20;99.90;;;;;;5016039;28;20307;-59
2023/07/27 05:04:41;;;;;;;4.40;4.00;;;14.20;99.90;;;;;;5004945;28;20579;-60
2023/07/27 05:07:06;;;;;;;5.43;4.87;;;14.10;99.90;;;;;;5007066;28;20545;-59
2023/07/27 05:09:32;;;;;;;4.80;4.30;;;14.30;99.90;;;;;;5012564;28;20412;-60
2023/07/27 05:11:57;;;;;;;6.77;4.40;;;14.40;99.90;;;;;;5018178;28;20212;-59
2023/07/27 05:14:23;;;;;;;5.17;4.77;;;14.30;99.90;;;;;;5020532;28;20313;-60
2023/07/27 05:16:48;;;;;;;4.03;3.73;;;14.30;99.90;;;;;;5019022;28;20274;-59
2023/07/27 05:19:14;;;;;;;4.97;3.77;;;14.40;99.90;;;;;;5021255;28;20206;-59
2023/07/27 05:21:39;;;;;;;4.57;4.20;;;14.40;99.90;;;;;;5020657;28;20202;-58
2023/07/27 05:24:05;;;;;;;4.87;4.17;;;14.40;99.90;;;;;;5016095;28;20180;-60
2023/07/27 05:26:30;;;;;;;4.10;3.70;;;14.50;99.90;;;;;;5018506;28;20939;-64
2023/07/27 05:28:56;;;;;;;4.30;3.90;;;14.60;99.90;;;;;;5013384;28;20196;-65
2023/07/27 05:31:21;;;;;;;5.40;3.43;;;14.70;99.90;;;;;;5012493;28;20202;-64
2023/07/27 05:33:47;;;;;;;4.40;4.03;;;14.70;99.90;;;;;;5011853;28;20200;-64
2023/07/27 05:36:12;;;;;;;3.70;3.33;;;14.70;99.90;;;;;;5016929;28;20285;-58
2023/07/27 05:38:38;;;;;;;5.37;3.40;;;14.80;99.90;;;;;;5014446;28;20220;-58
2023/07/27 05:41:04;;;;;;;4.37;3.93;;;14.90;99.90;;;;;;5018387;28;20195;-58
2023/07/27 05:43:29;;;;;;;4.60;4.07;;;14.90;99.90;;;;;;5008704;28;20575;-60
2023/07/27 05:45:56;;;;;;;4.30;3.90;;;14.90;99.90;;;;;;5022155;28;20187;-60
2023/07/27 05:48:21;;;;;;;5.57;3.87;;;15.10;99.90;;;;;;5016514;28;20203;-59
2023/07/27 05:50:47;;;;;;;4.70;3.57;;;15.20;99.90;;;;;;5010234;28;20202;-60
2023/07/27 05:53:12;;;;;;;3.07;2.87;;;15.30;99.90;;;;;;5011041;28;20204;-60
2023/07/27 05:55:37;;;;;;;3.27;2.97;;;15.40;99.90;;;;;;5009265;28;20220;-59
2023/07/27 05:58:03;;;;;;;4.00;3.53;;;15.50;99.90;;;;;;5018776;28;20215;-60
2023/07/27 06:00:29;;;;;;;4.27;3.00;;;15.60;99.90;;;;;;5017853;28;20238;-60
2023/07/27 06:02:54;;;;;;;3.43;3.13;;;15.70;99.90;;;;;;5020353;28;20266;-60
2023/07/27 06:05:19;;;;;;;3.97;3.57;;;15.90;99.90;;;;;;5019994;28;20303;-60
2023/07/27 06:07:45;;;;;;;7.80;3.70;;;16.00;99.90;;;;;;5010034;28;20210;-60
2023/07/27 06:10:11;;;;;;;3.40;3.10;;;16.10;99.90;;;;;;5011618;28;20215;-59
2023/07/27 06:12:37;;;;;;;4.10;3.43;;;16.20;99.90;;;;;;5011247;28;20345;-60
2023/07/27 06:15:03;;;;;;;6.53;3.57;;;16.20;99.90;;;;;;5022888;28;20756;-59
2023/07/27 06:17:28;;;;;;;7.87;3.10;;;16.20;99.90;;;;;;5011915;28;20643;-59
2023/07/27 06:19:54;;;;;;;3.70;2.70;;;16.30;99.90;;;;;;5019682;28;20684;-60
2023/07/27 06:22:19;;;;;;;4.00;3.43;;;16.30;99.90;;;;;;5019363;28;20207;-61
2023/07/27 06:24:45;;;;;;;3.00;2.70;;;16.30;99.90;;;;;;5016396;28;20175;-61
2023/07/27 06:27:10;;;;;;;4.03;3.63;;;16.40;99.90;;;;;;5024321;28;20214;-60
2023/07/27 06:29:36;;;;;;;4.37;3.93;;;16.50;99.90;;;;;;5020743;28;20184;-60
2023/07/27 06:32:01;;;;;;;5.83;3.73;;;16.60;99.90;;;;;;5024634;28;20198;-61
2023/07/27 06:34:27;;;;;;;3.97;3.63;;;16.60;99.90;;;;;;5026163;28;20193;-61
2023/07/27 06:36:52;;;;;;;6.90;3.63;;;16.60;99.90;;;;;;5032352;28;20226;-61
2023/07/27 06:39:18;;;;;;;3.77;3.40;;;16.60;99.90;;;;;;5025267;28;20610;-62
2023/07/27 06:41:43;;;;;;;4.17;3.77;;;16.60;99.90;;;;;;5016330;28;20196;-61
2023/07/27 06:44:09;;;;;;;5.07;3.37;;;16.70;99.90;;;;;;5019715;28;20238;-61
2023/07/27 06:46:34;;;;;;;4.00;3.40;;;16.80;99.90;;;;;;5017356;28;20769;-61
2023/07/27 06:49:00;;;;;;;4.60;3.67;;;16.80;99.90;;;;;;5025510;28;20213;-59
2023/07/27 06:51:26;;;;;;;3.93;3.20;;;16.80;99.90;;;;;;5015778;28;20210;-59
2023/07/27 06:53:51;;;;;;;3.40;3.03;;;16.90;99.90;;;;;;5026097;28;20180;-59
2023/07/27 06:56:17;;;;;;;4.47;3.90;;;17.00;99.90;;;;;;5022648;28;20671;-60
2023/07/27 06:58:42;;;;;;;4.33;3.43;;;16.90;99.90;;;;;;5023523;28;20216;-60
2023/07/27 07:01:10;;;;;;;3.70;3.40;;;17.00;99.90;;;;;;5019036;28;20192;-60
2023/07/27 07:03:35;;;;;;;4.67;3.30;;;17.00;99.90;;;;;;5018829;28;20682;-59
2023/07/27 07:06:01;;;;;;;4.93;3.43;;;17.00;99.90;;;;;;5017962;28;20291;-59
2023/07/27 07:08:26;;;;;;;4.37;3.40;;;17.20;99.90;;;;;;5014392;28;20270;-60
2023/07/27 07:10:52;;;;;;;4.23;3.27;;;17.30;99.90;;;;;;5022693;28;20199;-60
2023/07/27 07:13:17;;;;;;;3.50;3.13;;;17.40;99.90;;;;;;5022182;28;20212;-60
2023/07/27 07:15:45;;;;;;;4.20;3.33;;;17.30;99.90;;;;;;5012552;28;20200;-60
2023/07/27 07:18:10;;;;;;;6.90;3.77;;;17.50;99.90;;;;;;5018874;28;20975;-60
2023/07/27 07:20:36;;;;;;;3.97;3.47;;;17.70;99.90;;;;;;5011881;28;20192;-60
2023/07/27 07:23:02;;;;;;;3.83;3.40;;;17.80;99.90;;;;;;5023036;28;20245;-61
2023/07/27 07:25:27;;;;;;;3.70;2.97;;;17.80;99.90;;;;;;5018077;28;20199;-61
2023/07/27 07:27:53;;;;;;;3.27;3.07;;;17.90;99.90;;;;;;5016680;28;20566;-60
2023/07/27 07:30:18;;;;;;;3.70;3.40;;;18.10;99.90;;;;;;5019561;28;20192;-60
2023/07/27 07:32:44;;;;;;;3.47;3.17;;;18.00;99.90;;;;;;5011395;28;20278;-60
2023/07/27 07:35:09;;;;;;;4.30;3.73;;;18.00;99.90;;;;;;5017705;28;20187;-60
2023/07/27 07:37:34;;;;;;;3.60;3.30;;;18.10;99.90;;;;;;5021412;28;20314;-60
2023/07/27 07:40:00;;;;;;;6.23;3.47;;;18.30;99.90;;;;;;5024410;28;20199;-60
2023/07/27 07:42:25;;;;;;;3.97;3.07;;;18.40;99.90;;;;;;5020698;28;20207;-59
2023/07/27 07:44:51;;;;;;;5.23;3.43;;;18.50;99.90;;;;;;5018305;28;20209;-59
2023/07/27 07:47:16;;;;;;;3.20;3.00;;;18.60;99.90;;;;;;5020072;28;20207;-59
2023/07/27 07:49:42;;;;;;;3.73;3.10;;;18.60;99.90;;;;;;5010053;28;20295;-59
2023/07/27 07:52:07;;;;;;;3.87;3.13;;;18.70;99.90;;;;;;5017157;28;20512;-59
2023/07/27 07:54:33;;;;;;;3.77;3.00;;;18.70;99.90;;;;;;5031651;28;20825;-60
2023/07/27 07:56:59;;;;;;;4.13;3.73;;;18.70;99.90;;;;;;5021848;28;20208;-60
2023/07/27 07:59:25;;;;;;;5.73;3.40;;;18.60;99.90;;;;;;5019273;28;20187;-59
2023/07/27 08:01:51;;;;;;;4.77;3.10;;;18.70;99.90;;;;;;5020677;28;20196;-59
2023/07/27 08:04:18;;;;;;;3.27;2.97;;;18.60;99.90;;;;;;5014574;28;20195;-61
2023/07/27 08:06:44;;;;;;;3.03;2.70;;;18.50;99.90;;;;;;5009275;28;20307;-73
2023/07/27 08:09:10;;;;;;;4.47;2.97;;;18.60;99.90;;;;;;5020466;28;20235;-63
2023/07/27 08:11:35;;;;;;;6.43;3.60;;;18.60;99.90;;;;;;5013865;28;20223;-64
2023/07/27 08:14:02;;;;;;;3.67;3.37;;;18.50;99.90;;;;;;5021883;28;20940;-63
2023/07/27 08:16:30;;;;;;;4.40;3.40;;;18.50;99.90;;;;;;5015321;28;20608;-63
2023/07/27 08:18:56;;;;;;;2.87;2.67;;;18.50;99.90;;;;;;5020248;28;20274;-61
2023/07/27 08:21:21;;;;;;;3.67;3.30;;;18.50;99.90;;;;;;5022693;28;20195;-62
2023/07/27 08:23:47;;;;;;;3.53;3.23;;;18.40;99.90;;;;;;5018962;28;20204;-62
2023/07/27 08:26:13;;;;;;;4.83;3.57;;;18.40;99.90;;;;;;5023613;28;20199;-62
2023/07/27 08:28:38;;;;;;;3.60;3.13;;;18.40;99.90;;;;;;5015909;28;20250;-62
2023/07/27 08:31:04;;;;;;;3.60;3.20;;;18.30;99.90;;;;;;5014299;28;20971;-65
2023/07/27 08:33:31;;;;;;;3.37;3.07;;;18.40;99.90;;;;;;5013862;28;20211;-62
2023/07/27 08:35:57;;;;;;;3.30;3.00;;;18.40;99.90;;;;;;5016769;28;20229;-62
2023/07/27 08:38:23;;;;;;;4.27;3.17;;;18.40;99.90;;;;;;5015768;28;20242;-61
2023/07/27 08:40:53;;;;;;;5.70;3.70;;;18.30;99.90;;;;;;5035272;28;20240;-66
2023/07/27 08:43:19;;;;;;;4.07;3.67;;;18.50;99.90;;;;;;5013606;28;20205;-59
2023/07/27 08:45:45;;;;;;;3.47;3.17;;;18.70;99.90;;;;;;5015491;28;20195;-65
2023/07/27 08:48:13;;;;;;;3.83;3.53;;;18.60;99.90;;;;;;5018078;28;20191;-63
2023/07/27 08:50:38;;;;;;;5.73;3.67;;;18.50;99.90;;;;;;5013440;28;20822;-66
2023/07/27 08:53:04;;;;;;;3.33;3.03;;;18.60;99.90;;;;;;5007626;28;20210;-63
2023/07/27 08:55:30;;;;;;;3.77;3.47;;;18.70;99.90;;;;;;5019176;28;20184;-61
2023/07/27 08:57:56;;;;;;;5.80;4.13;;;18.80;99.90;;;;;;5009424;28;20686;-67
2023/07/27 09:00:21;;;;;;;4.47;4.07;;;18.80;99.90;;;;;;5017576;28;20215;-65
2023/07/27 09:02:47;;;;;;;4.53;4.13;;;18.80;99.90;;;;;;5032191;28;20255;-66
2023/07/27 09:05:15;;;;;;;3.67;3.37;;;19.00;99.90;;;;;;5018483;28;20191;-65
2023/07/27 09:07:41;;;;;;;7.00;4.13;;;19.20;99.90;;;;;;5016771;28;20223;-65
2023/07/27 09:10:08;;;;;;;3.40;3.10;;;19.20;99.90;;;;;;5008432;28;20196;-60
2023/07/27 09:12:34;;;;;;;4.77;4.37;;;19.20;99.90;;;;;;5010375;28;20200;-64
2023/07/27 09:15:00;;;;;;;6.10;4.00;;;19.10;99.90;;;;;;5008827;28;20200;-62
2023/07/27 09:17:25;;;;;;;4.20;3.80;;;19.20;99.90;;;;;;5015991;28;20220;-62
2023/07/27 09:19:51;;;;;;;3.93;3.60;;;19.10;99.90;;;;;;5011489;28;20202;-65
2023/07/27 09:22:18;;;;;;;3.83;3.40;;;19.10;99.90;;;;;;5010437;28;20254;-63
2023/07/27 09:24:44;;;;;;;3.57;3.27;;;19.20;99.90;;;;;;5014434;28;20253;-63
2023/07/27 09:27:11;;;;;;;5.73;3.97;;;19.30;99.90;;;;;;5012914;28;20293;-64
2023/07/27 09:29:37;;;;;;;5.07;3.73;;;19.40;99.90;;;;;;5018478;28;20190;-62
2023/07/27 09:32:05;;;;;;;3.40;3.13;;;19.50;99.90;;;;;;5015965;28;20684;-62
2023/07/27 09:34:31;;;;;;;6.80;4.30;;;19.40;99.90;;;;;;5010693;28;20180;-61
2023/07/27 09:37:02;;;;;;;3.87;3.57;;;19.30;99.90;;;;;;5012887;28;20197;-68
2023/07/27 09:39:28;;;;;;;4.07;3.63;;;19.40;99.90;;;;;;5015172;28;20190;-67
2023/07/27 09:41:54;;;;;;;4.17;3.77;;;19.40;99.90;;;;;;5014505;28;20207;-62
2023/07/27 09:44:21;;;;;;;4.80;3.70;;;19.30;99.90;;;;;;5009668;28;20971;-66
2023/07/27 09:46:47;;;;;;;4.17;3.20;;;19.30;99.90;;;;;;5010451;28;20257;-58
2023/07/27 09:49:17;;;;;;;7.53;3.50;;;19.40;99.90;;;;;;5009666;28;20180;-66
2023/07/27 09:51:44;;;;;;;6.20;3.83;;;19.30;99.90;;;;;;5012355;28;20210;-62
2023/07/27 09:54:11;;;;;;;3.47;3.17;;;19.40;99.90;;;;;;5041454;28;20934;-65
2023/07/27 09:56:37;;;;;;;5.30;3.83;;;19.40;99.90;;;;;;5009311;28;20250;-61
2023/07/27 09:59:02;;;;;;;5.87;3.77;;;19.50;99.90;;;;;;5011717;28;20251;-66
2023/07/27 10:01:28;;;;;;;4.23;3.87;;;19.40;99.90;;;;;;5014414;28;20203;-63
2023/07/27 10:04:00;;;;;;;3.93;3.57;;;19.30;99.90;;;;;;5018253;28;20666;-63
2023/07/27 10:06:27;;;;;;;4.10;3.77;;;19.20;99.90;;;;;;5005273;28;20291;-60
2023/07/27 10:08:54;;;;;;;3.90;3.50;;;19.20;99.90;;;;;;5011329;28;20204;-60
2023/07/27 10:11:49;;;;;;;3.63;3.33;;;19.20;99.90;;;;;;5013560;28;20250;-62
2023/07/27 10:14:19;;;;;;;4.23;3.40;;;19.20;99.90;;;;;;5012483;28;20193;-61
2023/07/27 10:17:07;;;;;;;4.53;3.10;;;19.20;99.90;;;;;;5016921;28;20219;-63
2023/07/27 10:19:49;;;;;;;3.27;2.73;;;19.40;99.90;;;;;;5019662;28;20193;-67
2023/07/27 10:22:17;;;;;;;3.40;3.10;;;19.50;99.90;;;;;;5003305;28;20223;-66
2023/07/27 10:24:52;;;;;;;3.47;3.17;;;19.30;99.90;;;;;;5007359;28;20197;-66
2023/07/27 10:27:19;;;;;;;3.70;3.30;;;19.50;99.90;;;;;;5019801;28;20222;-64
2023/07/27 10:29:52;;;;;;;5.50;3.57;;;19.50;99.90;;;;;;5014120;28;20184;-67
2023/07/27 10:32:17;;;;;;;3.67;3.30;;;19.70;99.90;;;;;;5012447;28;20197;-63
2023/07/27 10:34:43;;;;;;;3.13;2.93;;;19.60;99.90;;;;;;5014039;28;20201;-63
2023/07/27 10:37:13;;;;;;;8.00;6.50;;;19.70;99.90;;;;;;5018363;28;20236;-62
2023/07/27 10:39:47;;;;;;;3.47;3.17;;;19.80;99.90;;;;;;5017612;28;20250;-63
2023/07/27 10:42:24;;;;;;;3.77;3.17;;;19.90;99.90;;;;;;5016119;28;20208;-62
2023/07/27 10:44:57;;;;;;;4.47;3.67;;;19.70;99.90;;;;;;5021748;28;20189;-62
2023/07/27 10:47:30;;;;;;;3.87;3.47;;;19.70;99.90;;;;;;5014583;28;20228;-62
2023/07/27 10:49:57;;;;;;;3.17;2.93;;;19.70;99.90;;;;;;5017256;28;20208;-62
2023/07/27 10:52:26;;;;;;;5.90;2.93;;;19.60;99.90;;;;;;5014979;28;20209;-62
2023/07/27 10:54:52;;;;;;;6.90;3.10;;;19.50;99.90;;;;;;5019049;28;20194;-65
2023/07/27 10:57:19;;;;;;;6.17;3.27;;;19.70;99.90;;;;;;5005944;28;20204;-62
2023/07/27 10:59:47;;;;;;;3.50;3.20;;;19.90;99.90;;;;;;5014571;28;20598;-62
2023/07/27 11:02:26;;;;;;;2.93;2.63;;;19.90;99.90;;;;;;5015228;28;20236;-62
2023/07/27 11:04:56;;;;;;;4.63;2.63;;;19.90;99.90;;;;;;5016189;28;20622;-61
2023/07/27 11:07:31;;;;;;;3.53;3.23;;;19.90;99.90;;;;;;5019633;28;20332;-64
2023/07/27 11:09:57;;;;;;;4.60;3.30;;;20.00;99.90;;;;;;5017218;28;20781;-70
2023/07/27 11:12:23;;;;;;;3.70;3.20;;;20.00;99.90;;;;;;5021269;28;20749;-61
2023/07/27 11:14:51;;;;;;;6.40;3.23;;;20.00;99.90;;;;;;5017892;28;20211;-62
2023/07/27 11:17:18;;;;;;;2.80;2.60;;;20.00;99.90;;;;;;5037435;28;20219;-62
2023/07/27 11:19:43;;;;;;;4.00;3.00;;;20.00;99.90;;;;;;5023700;28;20199;-61
2023/07/27 11:22:10;;;;;;;4.20;3.53;;;19.80;99.90;;;;;;5012790;28;20207;-68
2023/07/27 11:24:35;;;;;;;3.77;3.10;;;19.90;99.90;;;;;;5016681;28;20201;-66
2023/07/27 11:27:01;;;;;;;6.03;3.63;;;19.90;99.90;;;;;;5016984;28;20271;-66
2023/07/27 11:29:27;;;;;;;3.73;3.37;;;20.00;99.90;;;;;;5021179;28;20208;-61
2023/07/27 11:31:59;;;;;;;3.57;3.27;;;20.10;99.90;;;;;;5005495;28;20204;-65
2023/07/27 11:34:26;;;;;;;3.47;2.87;;;20.10;99.90;;;;;;5008871;28;20189;-60
2023/07/27 11:36:55;;;;;;;4.50;3.57;;;20.00;99.90;;;;;;5012198;28;20203;-67
2023/07/27 11:39:21;;;;;;;5.80;3.13;;;20.00;99.90;;;;;;5014529;28;20227;-61
2023/07/27 11:41:49;;;;;;;3.60;3.30;;;19.90;99.90;;;;;;5014414;28;20682;-62
2023/07/27 11:44:16;;;;;;;3.60;3.30;;;19.90;99.90;;;;;;5011251;28;20181;-61
2023/07/27 11:46:46;;;;;;;6.13;3.47;;;19.90;99.90;;;;;;5017415;28;20212;-65
2023/07/27 11:49:13;;;;;;;4.77;3.70;;;20.00;99.90;;;;;;5007539;28;20182;-70
2023/07/27 11:51:39;;;;;;;4.87;3.80;;;20.10;99.90;;;;;;5017278;28;20201;-62
2023/07/27 11:54:05;;;;;;;4.70;3.40;;;19.90;99.90;;;;;;5007916;28;20713;-62
2023/07/27 11:56:37;;;;;;;6.83;4.30;;;20.00;99.90;;;;;;5011528;28;20197;-62
2023/07/27 11:59:06;;;;;;;3.50;3.20;;;20.00;99.90;;;;;;5045264;28;20212;-62
2023/07/27 12:01:36;;;;;;;3.90;3.60;;;20.00;99.90;;;;;;5017271;28;20200;-62
2023/07/27 12:04:04;;;;;;;3.70;3.40;;;20.10;99.90;;;;;;5021225;28;20228;-62
2023/07/27 12:06:30;;;;;;;4.57;3.87;;;20.00;99.90;;;;;;5010725;28;20302;-60
2023/07/27 12:08:56;;;;;;;5.33;4.80;;;19.90;99.90;;;;;;5012031;28;20738;-66
2023/07/27 12:11:26;;;;;;;4.80;4.00;;;20.00;99.90;;;;;;5010411;28;22572;-59
2023/07/27 12:13:52;;;;;;;5.20;3.60;;;20.00;99.90;;;;;;5008909;28;20241;-65
2023/07/27 12:16:17;;;;;;;4.27;3.87;;;20.10;99.90;;;;;;5007611;28;20207;-65
2023/07/27 12:18:45;;;;;;;4.20;3.53;;;20.10;99.90;;;;;;5015441;28;20303;-66
2023/07/27 12:21:11;;;;;;;3.43;3.13;;;20.20;99.90;;;;;;5016298;28;20200;-61
2023/07/27 12:23:37;;;;;;;6.70;4.13;;;20.30;99.90;;;;;;5016357;28;20251;-65
2023/07/27 12:26:03;;;;;;;4.53;3.80;;;20.30;99.90;;;;;;5003177;28;20740;-65
2023/07/27 12:28:31;;;;;;;3.90;3.53;;;20.30;99.90;;;;;;5012291;28;20934;-61
2023/07/27 12:30:56;;;;;;;4.30;3.90;;;20.30;99.90;;;;;;5006696;28;20197;-66
2023/07/27 12:33:25;;;;;;;4.97;3.57;;;20.30;99.90;;;;;;5018735;28;20689;-61
2023/07/27 12:35:52;;;;;;;4.73;3.47;;;20.30;99.90;;;;;;5012694;28;20260;-67
2023/07/27 12:38:18;;;;;;;3.70;3.40;;;20.20;99.90;;;;;;5011927;28;20235;-64
2023/07/27 12:40:44;;;;;;;4.70;3.33;;;20.20;99.90;;;;;;5016491;28;20527;-61
2023/07/27 12:43:10;;;;;;;6.27;3.80;;;20.20;99.90;;;;;;5012421;28;20194;-61
2023/07/27 12:45:36;;;;;;;3.90;3.47;;;20.20;99.90;;;;;;5013652;28;20223;-61
2023/07/27 12:48:03;;;;;;;3.83;3.53;;;20.10;99.90;;;;;;5021195;28;20215;-60